createdAt,value
2018-07-09T00:01:04.251Z,14.90
2018-07-09T00:03:32.803Z,14.90
2018-07-09T00:06:01.387Z,14.70
2018-07-09T00:08:29.948Z,14.60
2018-07-09T00:11:03.190Z,14.60
2018-07-09T00:13:32.483Z,14.50
2018-07-09T00:16:01.361Z,14.60
2018-07-09T00:18:30.037Z,14.50
2018-07-09T00:20:58.595Z,14.50
2018-07-09T00:23:27.168Z,14.50
2018-07-09T00:25:56.426Z,14.40
2018-07-09T00:28:25.375Z,14.40
2018-07-09T00:30:53.939Z,14.40
2018-07-09T00:33:22.858Z,14.50
2018-07-09T00:35:51.456Z,14.40
2018-07-09T00:38:20.490Z,14.40
2018-07-09T00:40:49.086Z,14.30
2018-07-09T00:43:17.849Z,14.30
2018-07-09T00:45:46.472Z,14.30
2018-07-09T00:48:15.043Z,14.20
2018-07-09T00:50:43.587Z,14.10
2018-07-09T00:53:12.239Z,14.10
2018-07-09T00:55:40.867Z,14.00
2018-07-09T00:58:09.379Z,13.90
2018-07-09T01:00:37.968Z,13.90
2018-07-09T01:03:06.499Z,13.80
2018-07-09T01:05:35.000Z,13.80
2018-07-09T01:08:03.645Z,13.80
2018-07-09T01:10:32.164Z,13.80
2018-07-09T01:13:00.707Z,13.70
2018-07-09T01:15:29.260Z,13.60
2018-07-09T01:17:57.795Z,13.60
2018-07-09T01:20:26.965Z,13.50
2018-07-09T01:22:55.503Z,13.50
2018-07-09T01:25:24.128Z,13.40
2018-07-09T01:27:52.657Z,13.40
2018-07-09T01:30:21.240Z,13.40
2018-07-09T01:32:49.754Z,13.30
2018-07-09T01:35:18.286Z,13.30
2018-07-09T01:37:46.836Z,13.20
2018-07-09T01:40:15.353Z,13.20
2018-07-09T01:42:43.917Z,13.20
2018-07-09T01:45:12.408Z,13.20
2018-07-09T01:47:40.932Z,13.20
2018-07-09T01:50:09.455Z,13.10
2018-07-09T01:52:37.983Z,13.10
2018-07-09T01:55:06.531Z,13.10
2018-07-09T01:57:35.063Z,13.10
2018-07-09T02:00:03.835Z,13.10
2018-07-09T02:02:32.384Z,13.10
2018-07-09T02:05:00.939Z,13.00
2018-07-09T02:07:29.518Z,13.00
2018-07-09T02:09:58.051Z,13.00
2018-07-09T02:12:26.644Z,13.00
2018-07-09T02:14:55.160Z,13.00
2018-07-09T02:17:23.678Z,12.90
2018-07-09T02:19:52.192Z,12.90
2018-07-09T02:22:20.768Z,12.90
2018-07-09T02:24:49.295Z,12.90
2018-07-09T02:27:17.862Z,12.90
2018-07-09T02:32:19.915Z,12.90
2018-07-09T02:34:48.421Z,12.80
2018-07-09T02:37:16.970Z,12.80
2018-07-09T02:39:45.515Z,12.80
2018-07-09T02:42:14.066Z,12.80
2018-07-09T02:44:42.609Z,12.90
2018-07-09T02:47:11.159Z,12.90
2018-07-09T02:49:39.703Z,12.90
2018-07-09T02:52:08.247Z,12.90
2018-07-09T02:54:36.815Z,12.90
2018-07-09T02:57:05.362Z,12.90
2018-07-09T02:59:33.931Z,12.90
2018-07-09T03:02:02.482Z,12.90
2018-07-09T03:04:31.017Z,12.90
2018-07-09T03:06:59.515Z,13.00
2018-07-09T03:09:28.078Z,12.90
2018-07-09T03:11:56.596Z,12.80
2018-07-09T03:14:25.133Z,12.70
2018-07-09T03:16:53.709Z,12.70
2018-07-09T03:19:22.261Z,12.70
2018-07-09T03:21:50.801Z,12.60
2018-07-09T03:24:19.347Z,12.60
2018-07-09T03:26:47.911Z,12.60
2018-07-09T03:29:16.461Z,12.50
2018-07-09T03:31:45.064Z,12.60
2018-07-09T03:34:13.617Z,12.60
2018-07-09T03:36:42.163Z,12.50
2018-07-09T03:39:10.733Z,12.50
2018-07-09T03:41:39.336Z,12.50
2018-07-09T03:44:07.910Z,12.50
2018-07-09T03:46:36.494Z,12.50
2018-07-09T03:49:05.189Z,12.50
2018-07-09T03:51:33.808Z,12.40
2018-07-09T03:54:02.408Z,12.40
2018-07-09T03:56:30.938Z,12.40
2018-07-09T03:58:59.469Z,12.40
2018-07-09T04:01:28.007Z,12.40
2018-07-09T04:03:56.542Z,12.30
2018-07-09T04:06:25.053Z,12.30
2018-07-09T04:08:53.604Z,12.20
2018-07-09T04:11:22.205Z,12.20
2018-07-09T04:13:50.979Z,12.20
2018-07-09T04:16:19.551Z,12.20
2018-07-09T04:18:48.068Z,12.20
2018-07-09T04:21:16.580Z,12.20
2018-07-09T04:23:45.103Z,12.20
2018-07-09T04:26:13.715Z,12.20
2018-07-09T04:28:42.280Z,12.20
2018-07-09T04:31:10.826Z,12.20
2018-07-09T04:33:39.384Z,12.20
2018-07-09T04:36:07.931Z,12.20
2018-07-09T04:38:36.512Z,12.20
2018-07-09T04:41:05.091Z,12.10
2018-07-09T04:43:33.630Z,12.10
2018-07-09T04:46:02.203Z,12.20
2018-07-09T04:48:30.709Z,12.20
2018-07-09T04:50:59.280Z,12.20
2018-07-09T04:53:27.824Z,12.20
2018-07-09T04:55:56.365Z,12.30
2018-07-09T04:58:24.870Z,12.30
2018-07-09T05:00:53.437Z,12.30
2018-07-09T05:03:22.004Z,12.30
2018-07-09T05:05:50.541Z,12.30
2018-07-09T05:08:19.086Z,12.40
2018-07-09T05:10:47.599Z,12.40
2018-07-09T05:13:16.111Z,12.50
2018-07-09T05:15:44.623Z,12.60
2018-07-09T05:18:13.120Z,12.70
2018-07-09T05:20:41.657Z,12.70
2018-07-09T05:23:10.185Z,12.80
2018-07-09T05:25:39.886Z,12.90
2018-07-09T05:28:08.473Z,13.00
2018-07-09T05:30:37.013Z,13.10
2018-07-09T05:33:05.583Z,13.10
2018-07-09T05:35:34.139Z,13.20
2018-07-09T05:38:02.699Z,13.30
2018-07-09T05:40:31.274Z,13.50
2018-07-09T05:42:59.829Z,13.60
2018-07-09T05:45:28.449Z,13.70
2018-07-09T05:47:57.037Z,13.80
2018-07-09T05:50:25.560Z,13.90
2018-07-09T05:52:54.084Z,14.00
2018-07-09T05:55:22.683Z,14.10
2018-07-09T05:57:51.301Z,14.20
2018-07-09T06:00:19.880Z,14.30
2018-07-09T06:02:48.421Z,14.40
2018-07-09T06:05:16.979Z,14.50
2018-07-09T06:07:46.317Z,14.60
2018-07-09T06:10:14.895Z,14.80
2018-07-09T06:12:43.445Z,15.00
2018-07-09T06:15:12.015Z,15.20
2018-07-09T06:17:40.621Z,15.30
2018-07-09T06:20:09.149Z,15.40
2018-07-09T06:22:37.740Z,15.50
2018-07-09T06:25:06.349Z,15.70
2018-07-09T06:27:34.912Z,15.80
2018-07-09T06:30:03.592Z,15.90
2018-07-09T06:32:32.140Z,16.00
2018-07-09T06:35:00.659Z,16.10
2018-07-09T06:37:29.675Z,16.20
2018-07-09T06:39:58.447Z,16.20
2018-07-09T06:42:26.967Z,16.30
2018-07-09T06:44:55.597Z,16.40
2018-07-09T06:47:24.177Z,16.50
2018-07-09T06:49:52.737Z,16.70
2018-07-09T06:52:21.343Z,16.80
2018-07-09T06:54:49.900Z,16.90
2018-07-09T06:57:18.473Z,17.00
2018-07-09T06:59:47.030Z,17.20
2018-07-09T07:02:15.613Z,17.30
2018-07-09T07:04:44.072Z,17.40
2018-07-09T07:07:12.643Z,17.50
2018-07-09T07:09:41.185Z,17.60
2018-07-09T07:12:09.714Z,17.70
2018-07-09T07:14:38.304Z,17.80
2018-07-09T07:17:06.868Z,17.80
2018-07-09T07:19:35.353Z,17.80
2018-07-09T07:22:03.938Z,17.90
2018-07-09T07:24:32.473Z,18.10
2018-07-09T07:27:00.980Z,18.20
2018-07-09T07:29:29.606Z,18.40
2018-07-09T07:31:58.110Z,18.50
2018-07-09T07:34:26.638Z,18.60
2018-07-09T07:36:55.196Z,18.70
2018-07-09T07:39:23.861Z,18.70
2018-07-09T07:41:52.534Z,18.90
2018-07-09T07:44:21.149Z,19.20
2018-07-09T07:46:49.691Z,19.50
2018-07-09T07:49:18.323Z,19.70
2018-07-09T07:51:46.878Z,19.90
2018-07-09T07:54:15.450Z,20.10
2018-07-09T07:56:44.051Z,20.40
2018-07-09T07:59:12.608Z,20.60
2018-07-09T08:01:41.205Z,20.70
2018-07-09T08:04:10.437Z,20.90
2018-07-09T08:06:39.035Z,21.10
2018-07-09T08:09:07.620Z,21.20
2018-07-09T08:11:48.553Z,21.30
2018-07-09T08:14:04.830Z,21.50
2018-07-09T08:16:33.406Z,21.70
2018-07-09T08:19:02.017Z,21.80
2018-07-09T08:21:30.637Z,21.80
2018-07-09T08:23:59.166Z,21.90
2018-07-09T08:26:27.744Z,22.10
2018-07-09T08:28:56.548Z,22.20
2018-07-09T08:31:25.287Z,22.30
2018-07-09T08:33:53.686Z,22.30
2018-07-09T08:36:22.259Z,22.30
2018-07-09T08:38:52.403Z,22.50
2018-07-09T08:41:21.004Z,22.70
2018-07-09T08:43:49.547Z,22.80
2018-07-09T08:46:18.122Z,23.00
2018-07-09T08:48:46.677Z,23.10
2018-07-09T08:51:15.264Z,23.10
2018-07-09T08:56:12.357Z,23.20
2018-07-09T08:58:40.924Z,23.30
2018-07-09T09:01:09.492Z,23.30
2018-07-09T09:03:38.031Z,23.30
2018-07-09T09:06:06.686Z,23.50
2018-07-09T09:08:35.232Z,23.70
2018-07-09T09:11:03.819Z,23.80
2018-07-09T09:13:32.386Z,24.00
2018-07-09T09:16:00.945Z,24.10
2018-07-09T09:18:30.316Z,24.10
2018-07-09T09:20:58.116Z,24.20
2018-07-09T09:23:26.641Z,24.30
2018-07-09T09:25:55.229Z,24.40
2018-07-09T09:28:23.828Z,24.30
2018-07-09T09:30:52.378Z,24.40
2018-07-09T09:33:20.978Z,24.30
2018-07-09T09:35:49.599Z,24.30
2018-07-09T09:38:18.171Z,24.00
2018-07-09T09:40:46.736Z,24.00
2018-07-09T09:43:15.357Z,23.90
2018-07-09T09:45:43.885Z,24.10
2018-07-09T09:48:12.451Z,24.30
2018-07-09T09:50:41.029Z,24.60
2018-07-09T09:53:09.626Z,24.80
2018-07-09T09:55:38.575Z,24.90
2018-07-09T09:58:07.707Z,24.90
2018-07-09T10:00:41.805Z,25.00
2018-07-09T10:03:10.371Z,25.00
2018-07-09T10:05:38.939Z,25.30
2018-07-09T10:08:07.496Z,25.60
2018-07-09T10:10:36.063Z,25.70
2018-07-09T10:13:04.632Z,25.80
2018-07-09T10:15:33.188Z,25.80
2018-07-09T10:18:01.738Z,25.80
2018-07-09T10:20:30.331Z,25.80
2018-07-09T10:22:58.932Z,25.90
2018-07-09T10:25:27.492Z,25.90
2018-07-09T10:30:24.243Z,25.90
2018-07-09T10:32:52.823Z,25.80
2018-07-09T10:35:21.340Z,25.60
2018-07-09T10:37:49.881Z,25.20
2018-07-09T10:40:18.496Z,24.90
2018-07-09T10:42:47.062Z,24.80
2018-07-09T10:45:15.844Z,24.70
2018-07-09T10:47:44.430Z,24.70
2018-07-09T10:50:13.001Z,24.60
2018-07-09T10:52:41.578Z,24.50
2018-07-09T10:55:10.161Z,24.50
2018-07-09T10:57:38.741Z,24.50
2018-07-09T11:00:07.336Z,24.30
2018-07-09T11:02:35.913Z,24.20
2018-07-09T11:05:04.658Z,24.20
2018-07-09T11:07:33.207Z,24.40
2018-07-09T11:10:01.812Z,24.60
2018-07-09T11:12:30.342Z,24.90
2018-07-09T11:14:58.911Z,25.30
2018-07-09T11:17:27.486Z,25.70
2018-07-09T11:19:56.052Z,25.70
2018-07-09T11:22:24.658Z,25.50
2018-07-09T11:24:53.261Z,25.40
2018-07-09T11:27:21.775Z,25.40
2018-07-09T11:29:50.387Z,25.50
2018-07-09T11:32:18.967Z,25.60
2018-07-09T11:34:47.598Z,25.50
2018-07-09T11:37:16.198Z,25.40
2018-07-09T11:39:44.794Z,25.30
2018-07-09T11:42:13.371Z,25.30
2018-07-09T11:44:41.959Z,25.40
2018-07-09T11:47:10.511Z,25.40
2018-07-09T11:49:39.146Z,25.40
2018-07-09T11:52:07.756Z,25.60
2018-07-09T11:54:36.353Z,25.80
2018-07-09T11:57:04.994Z,25.90
2018-07-09T11:59:33.534Z,26.00
2018-07-09T12:02:02.154Z,26.00
2018-07-09T12:04:30.723Z,26.00
2018-07-09T12:06:59.398Z,25.90
2018-07-09T12:09:27.925Z,26.00
2018-07-09T12:11:56.493Z,26.20
2018-07-09T12:14:25.061Z,26.40
2018-07-09T12:16:53.644Z,26.40
2018-07-09T12:19:22.233Z,26.30
2018-07-09T12:21:50.785Z,26.30
2018-07-09T12:24:19.341Z,26.40
2018-07-09T12:26:47.898Z,26.30
2018-07-09T12:29:16.448Z,26.30
2018-07-09T12:31:45.016Z,26.30
2018-07-09T12:34:13.538Z,26.40
2018-07-09T12:36:45.262Z,26.30
2018-07-09T12:39:14.044Z,26.30
2018-07-09T12:41:42.587Z,26.30
2018-07-09T12:44:11.152Z,26.40
2018-07-09T12:46:39.728Z,26.30
2018-07-09T12:49:08.301Z,26.30
2018-07-09T12:51:36.917Z,26.50
2018-07-09T12:54:05.599Z,26.60
2018-07-09T12:56:34.833Z,26.70
2018-07-09T12:59:03.842Z,26.70
2018-07-09T13:01:32.522Z,26.70
2018-07-09T13:04:01.321Z,26.80
2018-07-09T13:06:29.871Z,26.80
2018-07-09T13:08:58.459Z,26.90
2018-07-09T13:11:27.092Z,26.70
2018-07-09T13:13:55.736Z,26.70
2018-07-09T13:16:24.263Z,26.70
2018-07-09T13:18:52.902Z,26.70
2018-07-09T13:21:21.469Z,26.60
2018-07-09T13:23:50.020Z,26.70
2018-07-09T13:26:18.696Z,26.80
2018-07-09T13:28:47.245Z,26.90
2018-07-09T13:31:15.871Z,26.90
2018-07-09T13:33:44.437Z,26.70
2018-07-09T13:36:13.063Z,26.50
2018-07-09T13:38:41.611Z,26.20
2018-07-09T13:41:10.218Z,26.30
2018-07-09T13:43:38.817Z,26.30
2018-07-09T13:46:07.436Z,26.30
2018-07-09T13:48:36.051Z,26.30
2018-07-09T13:51:04.670Z,26.40
2018-07-09T13:53:33.286Z,26.30
2018-07-09T13:56:01.916Z,26.50
2018-07-09T13:58:30.562Z,26.40
2018-07-09T14:00:59.141Z,26.60
2018-07-09T14:03:27.728Z,26.60
2018-07-09T14:05:56.299Z,26.50
2018-07-09T14:08:24.942Z,26.60
2018-07-09T14:10:53.474Z,26.70
2018-07-09T14:13:22.098Z,26.80
2018-07-09T14:15:50.680Z,26.80
2018-07-09T14:18:19.244Z,27.00
2018-07-09T14:20:47.807Z,27.00
2018-07-09T14:23:17.703Z,26.90
2018-07-09T14:25:46.433Z,26.90
2018-07-09T14:28:15.041Z,27.10
2018-07-09T14:30:43.575Z,27.20
2018-07-09T14:33:12.149Z,27.20
2018-07-09T14:35:40.682Z,27.10
2018-07-09T14:38:09.263Z,27.20
2018-07-09T14:43:06.106Z,27.10
2018-07-09T14:45:34.643Z,27.10
2018-07-09T14:48:03.281Z,27.10
2018-07-09T14:50:31.838Z,27.00
2018-07-09T14:53:00.432Z,27.10
2018-07-09T14:55:28.997Z,27.00
2018-07-09T14:57:57.576Z,26.80
2018-07-09T15:00:26.316Z,26.70
2018-07-09T15:02:54.925Z,26.60
2018-07-09T15:05:24.640Z,26.60
2018-07-09T15:07:53.441Z,26.40
2018-07-09T15:10:22.026Z,26.20
2018-07-09T15:12:50.594Z,25.90
2018-07-09T15:15:19.155Z,25.60
2018-07-09T15:17:47.768Z,25.60
2018-07-09T15:20:16.320Z,25.90
2018-07-09T15:22:44.864Z,26.10
2018-07-09T15:25:13.514Z,26.20
2018-07-09T15:27:42.088Z,26.10
2018-07-09T15:30:10.663Z,26.00
2018-07-09T15:32:39.234Z,26.10
2018-07-09T15:37:39.141Z,26.30
2018-07-09T15:40:07.851Z,26.50
2018-07-09T15:42:36.449Z,26.70
2018-07-09T15:45:05.148Z,26.70
2018-07-09T15:47:33.723Z,26.70
2018-07-09T15:50:06.215Z,26.70
2018-07-09T15:52:34.850Z,26.60
2018-07-09T15:55:03.413Z,26.70
2018-07-09T15:57:31.943Z,26.90
2018-07-09T16:00:00.549Z,26.60
2018-07-09T16:02:29.105Z,26.60
2018-07-09T16:04:57.664Z,26.70
2018-07-09T16:07:26.247Z,26.70
2018-07-09T16:09:54.770Z,26.70
2018-07-09T16:12:23.314Z,26.80
2018-07-09T16:14:51.901Z,26.70
2018-07-09T16:17:20.441Z,26.30
2018-07-09T16:19:48.981Z,26.00
2018-07-09T16:22:17.558Z,25.80
2018-07-09T16:24:46.088Z,25.60
2018-07-09T16:27:14.676Z,25.60
2018-07-09T16:29:43.264Z,25.70
2018-07-09T16:32:11.840Z,25.80
2018-07-09T16:34:40.421Z,25.60
2018-07-09T16:37:09.034Z,25.40
2018-07-09T16:39:37.639Z,25.40
2018-07-09T16:42:06.183Z,25.60
2018-07-09T16:44:34.806Z,25.70
2018-07-09T16:47:03.452Z,25.60
2018-07-09T16:49:31.939Z,25.50
2018-07-09T16:52:00.502Z,25.40
2018-07-09T16:54:29.058Z,25.30
2018-07-09T16:56:57.647Z,25.30
2018-07-09T16:59:26.227Z,25.40
2018-07-09T17:01:54.806Z,25.30
2018-07-09T17:04:23.356Z,25.30
2018-07-09T17:06:52.105Z,25.20
2018-07-09T17:09:20.652Z,25.20
2018-07-09T17:14:17.410Z,24.80
2018-07-09T17:16:45.974Z,24.90
2018-07-09T17:19:14.624Z,24.90
2018-07-09T17:21:43.173Z,24.90
2018-07-09T17:24:11.745Z,24.80
2018-07-09T17:29:08.544Z,24.80
2018-07-09T17:31:37.086Z,24.80
2018-07-09T17:34:05.684Z,24.90
2018-07-09T17:36:34.234Z,24.90
2018-07-09T17:39:02.889Z,24.90
2018-07-09T17:41:31.412Z,24.90
2018-07-09T17:43:59.977Z,24.90
2018-07-09T17:46:28.496Z,24.90
2018-07-09T17:48:57.010Z,24.80
2018-07-09T17:51:25.600Z,24.80
2018-07-09T17:53:54.105Z,24.70
2018-07-09T17:56:22.677Z,24.70
2018-07-09T17:58:51.257Z,24.60
2018-07-09T18:01:20.021Z,24.50
2018-07-09T18:03:48.601Z,24.30
2018-07-09T18:06:17.183Z,24.10
2018-07-09T18:08:45.676Z,23.80
2018-07-09T18:11:14.233Z,23.60
2018-07-09T18:13:42.918Z,23.50
2018-07-09T18:16:11.739Z,23.40
2018-07-09T18:18:40.270Z,23.30
2018-07-09T18:21:08.854Z,23.20
2018-07-09T18:23:37.426Z,23.20
2018-07-09T18:28:34.165Z,23.00
2018-07-09T18:31:02.726Z,22.90
2018-07-09T18:33:31.271Z,22.70
2018-07-09T18:35:59.831Z,22.60
2018-07-09T18:38:28.389Z,22.60
2018-07-09T18:40:57.241Z,22.40
2018-07-09T18:43:25.789Z,22.30
2018-07-09T18:45:54.382Z,22.20
2018-07-09T18:48:23.235Z,22.20
2018-07-09T18:50:51.762Z,22.20
2018-07-09T18:53:20.544Z,22.20
2018-07-09T18:55:49.117Z,22.10
2018-07-09T18:58:17.736Z,22.00
2018-07-09T19:00:46.268Z,22.00
2018-07-09T19:03:14.805Z,22.00
2018-07-09T19:06:31.369Z,21.80
2018-07-09T19:09:00.309Z,21.60
2018-07-09T19:11:28.971Z,21.50
2018-07-09T19:13:57.594Z,21.40
2018-07-09T19:16:26.167Z,21.40
2018-07-09T19:19:06.092Z,21.40
2018-07-09T19:21:45.923Z,21.30
2018-07-09T19:24:13.331Z,21.30
2018-07-09T19:26:41.178Z,21.30
2018-07-09T19:29:08.507Z,21.20
2018-07-09T19:31:35.902Z,21.20
2018-07-09T19:34:03.245Z,21.10
2018-07-09T19:36:31.480Z,21.10
2018-07-09T19:38:58.842Z,20.90
2018-07-09T19:41:26.174Z,20.90
2018-07-09T19:43:53.519Z,20.80
2018-07-09T19:46:20.986Z,20.70
2018-07-09T19:48:48.338Z,20.60
2018-07-09T19:51:15.662Z,20.60
2018-07-09T19:53:43.044Z,20.50
2018-07-09T19:56:10.367Z,20.40
2018-07-09T19:58:37.757Z,20.40
2018-07-09T20:01:05.142Z,20.20
2018-07-09T20:03:32.579Z,20.10
2018-07-09T20:05:59.858Z,19.90
2018-07-09T20:08:32.574Z,19.80
2018-07-09T20:11:05.327Z,19.80
2018-07-09T20:13:35.667Z,19.90
2018-07-09T20:16:08.435Z,19.90
2018-07-09T20:18:35.804Z,19.90
2018-07-09T20:21:03.150Z,19.90
2018-07-09T20:23:30.476Z,19.90
2018-07-09T20:25:57.835Z,19.90
2018-07-09T20:28:25.171Z,19.90
2018-07-09T20:30:52.513Z,20.00
2018-07-09T20:33:19.870Z,20.00
2018-07-09T20:35:47.196Z,20.00
2018-07-09T20:38:14.541Z,20.00
2018-07-09T20:40:41.884Z,20.10
2018-07-09T20:43:09.215Z,20.30
2018-07-09T20:45:36.605Z,20.40
2018-07-09T20:48:03.926Z,20.50
2018-07-09T20:50:31.256Z,20.40
2018-07-09T20:52:58.617Z,20.40
2018-07-09T20:55:25.972Z,20.40
2018-07-09T20:57:53.330Z,20.40
2018-07-09T21:00:20.657Z,20.30
2018-07-09T21:02:48.024Z,20.20
2018-07-09T21:05:15.330Z,20.00
2018-07-09T21:07:42.671Z,19.90
2018-07-09T21:10:10.024Z,19.90
2018-07-09T21:12:42.559Z,19.80
2018-07-09T21:15:09.938Z,19.90
2018-07-09T21:17:37.309Z,19.80
2018-07-09T21:20:04.661Z,19.70
2018-07-09T21:22:32.027Z,19.60
2018-07-09T21:24:59.381Z,19.50
2018-07-09T21:27:26.736Z,19.40
2018-07-09T21:29:54.108Z,19.30
2018-07-09T21:32:21.448Z,19.20
2018-07-09T21:34:48.807Z,19.10
2018-07-09T21:37:16.191Z,19.00
2018-07-09T21:39:43.534Z,18.80
2018-07-09T21:42:11.067Z,18.70
2018-07-09T21:44:38.448Z,18.60
2018-07-09T21:47:05.794Z,18.50
2018-07-09T21:49:33.155Z,18.50
2018-07-09T21:52:00.532Z,18.40
2018-07-09T21:54:27.978Z,18.30
2018-07-09T21:56:55.352Z,18.20
2018-07-09T21:59:22.707Z,18.10
2018-07-09T22:01:50.056Z,18.10
2018-07-09T22:04:17.397Z,17.90
2018-07-09T22:06:44.768Z,17.70
2018-07-09T22:09:12.102Z,17.50
2018-07-09T22:11:39.479Z,17.50
2018-07-09T22:14:06.845Z,17.40
2018-07-09T22:16:34.179Z,17.40
2018-07-09T22:19:01.529Z,17.40
2018-07-09T22:21:28.929Z,17.30
2018-07-09T22:23:56.263Z,17.20
2018-07-09T22:26:23.621Z,17.10
2018-07-09T22:28:51.045Z,17.10
2018-07-09T22:31:19.579Z,17.10
2018-07-09T22:38:44.514Z,17.00
2018-07-09T22:41:13.008Z,17.10
2018-07-09T22:43:52.670Z,17.10
2018-07-09T22:46:21.211Z,17.00
2018-07-09T22:48:49.765Z,17.00
2018-07-09T22:51:18.508Z,16.90
2018-07-09T22:53:46.858Z,16.90
2018-07-09T22:56:15.359Z,16.90
2018-07-09T22:58:43.979Z,16.80
2018-07-09T23:01:12.491Z,16.80
2018-07-09T23:03:40.979Z,16.70
2018-07-09T23:06:09.555Z,16.60
2018-07-09T23:08:38.063Z,16.50
2018-07-09T23:11:18.244Z,16.50
2018-07-09T23:14:57.213Z,16.50
2018-07-09T23:17:37.114Z,16.50
2018-07-09T23:21:44.817Z,16.40
2018-07-09T23:24:13.012Z,16.40
2018-07-09T23:26:40.652Z,16.40
2018-07-09T23:29:07.989Z,16.40
2018-07-09T23:34:02.916Z,16.30
2018-07-09T23:36:30.270Z,16.30
2018-07-09T23:38:57.615Z,16.30
2018-07-09T23:41:24.967Z,16.40
2018-07-09T23:43:52.347Z,16.40
2018-07-09T23:46:19.699Z,16.50
2018-07-09T23:48:47.075Z,16.50
2018-07-09T23:51:14.412Z,16.50
2018-07-09T23:53:41.785Z,16.60
2018-07-09T23:57:06.772Z,16.60
2018-07-09T23:59:47.728Z,16.60
